Tulsa, OK (74101)

6:31 PM CDT on September 02, 2015 (GMT -0500)
Sheridan Valley - South Tulsa | | Change Station
CLOSE
Current Station
Personal Weather Station
Location: Tulsa, OK
Elevation: 774 ft
Nearby Weather Stations

Elev 774 ft 36.05 °N, 95.90 °W | Updated 4 seconds ago

Clear
Clear
90.5 °F
Feels Like 96 °F
N
2.0
Wind Variable Wind from North
Gusts 2.0 mph

Today
High -- | Low -- °F
--% Chance of Precip.
Yesterday
High -- | Low -- °F
Precip. -- in
6:55 AM 7:50 PM
Waning Gibbous, 76% visible
Pressure 29.95 in
Visibility 10.0 miles
Clouds Clear
Heat Index 96 °F
Dew Point 70 °F
Humidity 51%
Rainfall 0.00 in
Snow Depth Not available.
UV 2 out of 12
Pollen 9.90 out of 12
Air Quality Not available.
Flu Activity Not available.
METAR KRVS 022253Z 18010KT 10SM CLR 33/18 A2994 RMK AO2 SLP140 T03280183
Pressure 29.95 in
Visibility 10.0 miles
Clouds Clear
Heat Index 96 °F
Dew Point 70 °F
Humidity 51%
Rainfall 0.00 in
Snow Depth Not available.
UV 2 out of 12
Pollen 9.90 out of 12
Air Quality Not available.
Flu Activity Not available.
METAR KRVS 022253Z 18010KT 10SM CLR 33/18 A2994 RMK AO2 SLP140 T03280183

10-Day Weather Forecast

×

Almanac

Astronomy

Sep. 02, 2015 Rise Set
Actual Time
Civil Twilight
Nautical Twilight
Astronomical Twilight
Moon
Length of Visible Light
Length of Day
Tomorrow will be .
, % of the Moon is Illuminated

Today's Extremes

State Highs State Lows

Community

WunderPhotos

Upload Photos

1,851,831 photos uploaded!

WunderBlogs® & News

Nearby

Air Quality

  Air Quality AQ Index Pollutant
Not available.

Snow Depth

Station Depth Elevation

Earthquake Activity

City Distance Mag. Time & Date
Minimum magnitude displayed is 2.5.

Coastal Water Temperatures

Place Temperature

Stations

Nearby Weather Stations

Station Location Temp. Windchill Dew Point Humidity Wind Precip. Elev Updated Type